KABE/ABE METAR and TAF weather

Enter ICAO airport designator
Station Type Date Time Source
KABE METAR 2018/04/27 00:51 UTC NOAA

KABE 270051Z 25005KT 10SM CLR 13/05 A2986 RMK AO2 SLP112 T01330050


Station Type Date Time Source
KABE Decoded METAR 2018/04/27 00:51 UTC NOAA

LEHIGH VALLEY INTERNATIONAL AIRPORT, PA, United States (KABE) 40-39N 075-27W 114M
Apr 26, 2018 - 08:51 PM EDT / 2018.04.27 0051 UTC
Wind: from the WSW (250 degrees) at 6 MPH (5 KT):0
Visibility: 10 mile(s):0
Sky conditions: clear
Temperature: 55.9 F (13.3 C)
Dew Point: 41.0 F (5.0 C)
Relative Humidity: 57%
Pressure (altimeter): 29.86 in. Hg (1011 hPa)
ob: KABE 270051Z 25005KT 10SM CLR 13/05 A2986 RMK AO2 SLP112 T01330050
cycle: 1

Station Type Date Time Source
KABE TAF 2018/04/26 18:45 UTC NOAA

TAF KABE 261743Z 2618/2718 27010KT P6SM SCT050
FM262200 26004KT P6SM SCT250
FM270200 VRB03KT P6SM SCT100
FM271000 VRB03KT P6SM -RA OVC080
FM271200 05004KT P6SM -RA SCT015 OVC040
FM271400 05004KT 4SM -RA BR OVC010


Example: see airport list